sensor_id;sensor_type;location;lat;lon;timestamp;P1;durP1;ratioP1;P2;durP2;ratioP2
33268;SDS011;19640;50.944;5.260;2024-02-21T00:01:45;27.30;;;13.07;;
33268;SDS011;19640;50.944;5.260;2024-02-21T00:04:11;28.30;;;13.20;;
33268;SDS011;19640;50.944;5.260;2024-02-21T00:06:36;27.48;;;12.73;;
33268;SDS011;19640;50.944;5.260;2024-02-21T00:09:02;20.10;;;12.60;;
33268;SDS011;19640;50.944;5.260;2024-02-21T00:11:28;37.38;;;13.82;;
33268;SDS011;19640;50.944;5.260;2024-02-21T00:13:53;29.13;;;12.40;;
33268;SDS011;19640;50.944;5.260;2024-02-21T00:16:19;28.20;;;11.90;;
33268;SDS011;19640;50.944;5.260;2024-02-21T00:18:45;25.80;;;13.27;;
33268;SDS011;19640;50.944;5.260;2024-02-21T00:21:10;24.50;;;11.43;;
33268;SDS011;19640;50.944;5.260;2024-02-21T00:23:43;25.63;;;12.43;;
33268;SDS011;19640;50.944;5.260;2024-02-21T00:26:11;27.02;;;11.75;;
33268;SDS011;19640;50.944;5.260;2024-02-21T00:28:38;25.48;;;12.00;;
33268;SDS011;19640;50.944;5.260;2024-02-21T00:31:04;24.65;;;11.73;;
33268;SDS011;19640;50.944;5.260;2024-02-21T00:33:30;19.23;;;11.63;;
33268;SDS011;19640;50.944;5.260;2024-02-21T00:35:55;24.08;;;11.43;;
33268;SDS011;19640;50.944;5.260;2024-02-21T00:38:21;20.08;;;11.55;;
33268;SDS011;19640;50.944;5.260;2024-02-21T00:40:47;24.70;;;10.85;;
33268;SDS011;19640;50.944;5.260;2024-02-21T00:43:12;26.88;;;11.68;;
33268;SDS011;19640;50.944;5.260;2024-02-21T00:45:38;21.90;;;10.90;;
33268;SDS011;19640;50.944;5.260;2024-02-21T00:48:04;26.67;;;11.20;;
33268;SDS011;19640;50.944;5.260;2024-02-21T00:50:30;24.05;;;11.75;;
33268;SDS011;19640;50.944;5.260;2024-02-21T00:52:56;28.05;;;11.52;;
33268;SDS011;19640;50.944;5.260;2024-02-21T00:55:21;22.98;;;11.30;;
33268;SDS011;19640;50.944;5.260;2024-02-21T00:57:47;20.55;;;10.10;;
33268;SDS011;19640;50.944;5.260;2024-02-21T01:00:13;24.80;;;10.65;;
33268;SDS011;19640;50.944;5.260;2024-02-21T01:02:39;20.45;;;10.60;;
33268;SDS011;19640;50.944;5.260;2024-02-21T01:05:04;24.60;;;10.57;;
33268;SDS011;19640;50.944;5.260;2024-02-21T01:07:30;19.77;;;10.70;;
33268;SDS011;19640;50.944;5.260;2024-02-21T01:09:56;19.05;;;10.75;;
33268;SDS011;19640;50.944;5.260;2024-02-21T01:12:22;21.90;;;10.80;;
33268;SDS011;19640;50.944;5.260;2024-02-21T01:14:47;23.27;;;10.23;;
33268;SDS011;19640;50.944;5.260;2024-02-21T01:17:14;19.17;;;9.68;;
33268;SDS011;19640;50.944;5.260;2024-02-21T01:19:40;22.13;;;10.65;;
33268;SDS011;19640;50.944;5.260;2024-02-21T01:22:06;20.65;;;9.88;;
33268;SDS011;19640;50.944;5.260;2024-02-21T01:24:31;30.98;;;10.50;;
33268;SDS011;19640;50.944;5.260;2024-02-21T01:26:57;22.75;;;9.65;;
33268;SDS011;19640;50.944;5.260;2024-02-21T01:29:23;22.95;;;9.70;;
33268;SDS011;19640;50.944;5.260;2024-02-21T01:31:49;23.35;;;9.32;;
33268;SDS011;19640;50.944;5.260;2024-02-21T01:34:14;23.92;;;10.05;;
33268;SDS011;19640;50.944;5.260;2024-02-21T01:36:40;24.83;;;10.45;;
33268;SDS011;19640;50.944;5.260;2024-02-21T01:39:07;16.98;;;8.43;;
33268;SDS011;19640;50.944;5.260;2024-02-21T01:41:33;28.70;;;9.60;;
33268;SDS011;19640;50.944;5.260;2024-02-21T01:43:58;24.40;;;9.52;;
33268;SDS011;19640;50.944;5.260;2024-02-21T01:46:24;19.90;;;8.57;;
33268;SDS011;19640;50.944;5.260;2024-02-21T01:48:55;18.00;;;8.57;;
33268;SDS011;19640;50.944;5.260;2024-02-21T01:51:22;23.92;;;9.30;;
33268;SDS011;19640;50.944;5.260;2024-02-21T01:53:49;22.48;;;8.52;;
33268;SDS011;19640;50.944;5.260;2024-02-21T01:56:17;23.38;;;8.13;;
33268;SDS011;19640;50.944;5.260;2024-02-21T01:58:43;15.50;;;7.70;;
33268;SDS011;19640;50.944;5.260;2024-02-21T02:01:10;20.48;;;8.73;;
33268;SDS011;19640;50.944;5.260;2024-02-21T02:03:36;18.38;;;7.90;;
33268;SDS011;19640;50.944;5.260;2024-02-21T02:06:02;19.83;;;7.90;;
33268;SDS011;19640;50.944;5.260;2024-02-21T02:08:29;22.55;;;8.07;;
33268;SDS011;19640;50.944;5.260;2024-02-21T02:10:57;21.42;;;7.57;;
33268;SDS011;19640;50.944;5.260;2024-02-21T02:13:23;15.98;;;7.78;;
33268;SDS011;19640;50.944;5.260;2024-02-21T02:15:49;19.58;;;8.73;;
33268;SDS011;19640;50.944;5.260;2024-02-21T02:18:16;13.38;;;7.35;;
33268;SDS011;19640;50.944;5.260;2024-02-21T02:20:43;19.52;;;8.38;;
33268;SDS011;19640;50.944;5.260;2024-02-21T02:23:10;15.73;;;7.82;;
33268;SDS011;19640;50.944;5.260;2024-02-21T02:25:37;21.15;;;7.63;;
33268;SDS011;19640;50.944;5.260;2024-02-21T02:28:04;19.70;;;7.97;;
33268;SDS011;19640;50.944;5.260;2024-02-21T02:30:34;15.57;;;6.38;;
33268;SDS011;19640;50.944;5.260;2024-02-21T02:33:01;17.92;;;7.25;;
33268;SDS011;19640;50.944;5.260;2024-02-21T02:35:28;19.00;;;7.50;;
33268;SDS011;19640;50.944;5.260;2024-02-21T02:37:54;17.27;;;8.38;;
33268;SDS011;19640;50.944;5.260;2024-02-21T02:40:20;21.88;;;8.07;;
33268;SDS011;19640;50.944;5.260;2024-02-21T02:42:45;15.63;;;7.72;;
33268;SDS011;19640;50.944;5.260;2024-02-21T02:45:12;20.30;;;7.90;;
33268;SDS011;19640;50.944;5.260;2024-02-21T02:47:39;17.25;;;8.25;;
33268;SDS011;19640;50.944;5.260;2024-02-21T02:50:05;22.63;;;7.38;;
33268;SDS011;19640;50.944;5.260;2024-02-21T02:52:31;16.33;;;7.38;;
33268;SDS011;19640;50.944;5.260;2024-02-21T02:54:57;20.33;;;8.13;;
33268;SDS011;19640;50.944;5.260;2024-02-21T02:57:23;13.18;;;8.20;;
33268;SDS011;19640;50.944;5.260;2024-02-21T02:59:49;16.65;;;7.47;;
33268;SDS011;19640;50.944;5.260;2024-02-21T03:02:17;15.45;;;7.80;;
33268;SDS011;19640;50.944;5.260;2024-02-21T03:04:43;22.65;;;8.45;;
33268;SDS011;19640;50.944;5.260;2024-02-21T03:07:09;14.02;;;6.65;;
33268;SDS011;19640;50.944;5.260;2024-02-21T03:09:36;16.27;;;7.38;;
33268;SDS011;19640;50.944;5.260;2024-02-21T03:12:03;21.85;;;7.13;;
33268;SDS011;19640;50.944;5.260;2024-02-21T03:14:29;17.85;;;8.30;;
33268;SDS011;19640;50.944;5.260;2024-02-21T03:16:55;18.90;;;6.88;;
33268;SDS011;19640;50.944;5.260;2024-02-21T03:19:21;17.90;;;7.07;;
33268;SDS011;19640;50.944;5.260;2024-02-21T03:21:47;12.05;;;7.40;;
33268;SDS011;19640;50.944;5.260;2024-02-21T03:24:14;15.45;;;8.20;;
33268;SDS011;19640;50.944;5.260;2024-02-21T03:26:41;14.68;;;8.20;;
33268;SDS011;19640;50.944;5.260;2024-02-21T03:29:06;17.00;;;8.23;;
33268;SDS011;19640;50.944;5.260;2024-02-21T03:31:33;13.20;;;7.53;;
33268;SDS011;19640;50.944;5.260;2024-02-21T03:34:00;24.63;;;8.55;;
33268;SDS011;19640;50.944;5.260;2024-02-21T03:36:26;16.08;;;7.22;;
33268;SDS011;19640;50.944;5.260;2024-02-21T03:38:51;19.85;;;8.10;;
33268;SDS011;19640;50.944;5.260;2024-02-21T03:41:17;20.45;;;7.40;;
33268;SDS011;19640;50.944;5.260;2024-02-21T03:43:43;22.05;;;7.43;;
33268;SDS011;19640;50.944;5.260;2024-02-21T03:46:08;17.55;;;7.90;;
33268;SDS011;19640;50.944;5.260;2024-02-21T03:48:34;24.55;;;8.32;;
33268;SDS011;19640;50.944;5.260;2024-02-21T03:51:00;18.63;;;6.95;;
33268;SDS011;19640;50.944;5.260;2024-02-21T03:53:26;17.13;;;8.35;;
33268;SDS011;19640;50.944;5.260;2024-02-21T03:55:53;17.80;;;7.55;;
33268;SDS011;19640;50.944;5.260;2024-02-21T03:58:19;15.02;;;8.05;;
33268;SDS011;19640;50.944;5.260;2024-02-21T04:00:45;15.45;;;7.60;;
33268;SDS011;19640;50.944;5.260;2024-02-21T04:03:11;18.48;;;7.78;;
33268;SDS011;19640;50.944;5.260;2024-02-21T04:05:37;15.38;;;7.63;;
33268;SDS011;19640;50.944;5.260;2024-02-21T04:08:05;13.55;;;7.22;;
33268;SDS011;19640;50.944;5.260;2024-02-21T04:10:31;14.05;;;7.50;;
33268;SDS011;19640;50.944;5.260;2024-02-21T04:12:57;12.57;;;7.93;;
33268;SDS011;19640;50.944;5.260;2024-02-21T04:15:22;19.52;;;8.63;;
33268;SDS011;19640;50.944;5.260;2024-02-21T04:17:48;19.10;;;7.70;;
33268;SDS011;19640;50.944;5.260;2024-02-21T04:20:14;15.55;;;8.25;;
33268;SDS011;19640;50.944;5.260;2024-02-21T04:22:42;17.10;;;7.93;;
33268;SDS011;19640;50.944;5.260;2024-02-21T04:25:09;15.90;;;7.43;;
33268;SDS011;19640;50.944;5.260;2024-02-21T04:27:36;22.23;;;7.68;;
33268;SDS011;19640;50.944;5.260;2024-02-21T04:30:03;21.13;;;7.28;;
33268;SDS011;19640;50.944;5.260;2024-02-21T04:32:29;14.70;;;7.75;;
33268;SDS011;19640;50.944;5.260;2024-02-21T04:34:55;20.52;;;8.18;;
33268;SDS011;19640;50.944;5.260;2024-02-21T04:37:20;16.00;;;7.18;;
33268;SDS011;19640;50.944;5.260;2024-02-21T04:39:46;18.42;;;7.72;;
33268;SDS011;19640;50.944;5.260;2024-02-21T04:42:13;18.95;;;7.60;;
33268;SDS011;19640;50.944;5.260;2024-02-21T04:44:39;22.52;;;8.20;;
33268;SDS011;19640;50.944;5.260;2024-02-21T04:47:04;15.93;;;7.70;;
33268;SDS011;19640;50.944;5.260;2024-02-21T04:49:30;13.55;;;8.05;;
33268;SDS011;19640;50.944;5.260;2024-02-21T04:51:56;16.90;;;7.80;;
33268;SDS011;19640;50.944;5.260;2024-02-21T04:54:21;13.80;;;7.15;;
33268;SDS011;19640;50.944;5.260;2024-02-21T04:56:47;17.33;;;8.50;;
33268;SDS011;19640;50.944;5.260;2024-02-21T04:59:13;21.38;;;7.97;;
33268;SDS011;19640;50.944;5.260;2024-02-21T05:01:38;19.30;;;7.80;;
33268;SDS011;19640;50.944;5.260;2024-02-21T05:04:04;18.55;;;9.05;;
33268;SDS011;19640;50.944;5.260;2024-02-21T05:06:29;20.10;;;7.88;;
33268;SDS011;19640;50.944;5.260;2024-02-21T05:08:55;23.35;;;8.15;;
33268;SDS011;19640;50.944;5.260;2024-02-21T05:11:23;14.40;;;8.27;;
33268;SDS011;19640;50.944;5.260;2024-02-21T05:13:49;11.30;;;6.95;;
33268;SDS011;19640;50.944;5.260;2024-02-21T05:16:15;22.40;;;8.82;;
33268;SDS011;19640;50.944;5.260;2024-02-21T05:18:41;14.05;;;8.25;;
33268;SDS011;19640;50.944;5.260;2024-02-21T05:21:08;21.85;;;7.35;;
33268;SDS011;19640;50.944;5.260;2024-02-21T05:23:33;20.42;;;7.75;;
33268;SDS011;19640;50.944;5.260;2024-02-21T05:25:59;19.83;;;7.28;;
33268;SDS011;19640;50.944;5.260;2024-02-21T05:28:24;10.15;;;6.45;;
33268;SDS011;19640;50.944;5.260;2024-02-21T05:30:50;12.07;;;7.38;;
33268;SDS011;19640;50.944;5.260;2024-02-21T05:33:16;10.35;;;6.53;;
33268;SDS011;19640;50.944;5.260;2024-02-21T05:35:49;9.30;;;6.10;;
33268;SDS011;19640;50.944;5.260;2024-02-21T05:38:15;12.00;;;6.80;;
33268;SDS011;19640;50.944;5.260;2024-02-21T05:40:41;10.85;;;6.38;;
33268;SDS011;19640;50.944;5.260;2024-02-21T05:43:07;11.05;;;7.07;;
33268;SDS011;19640;50.944;5.260;2024-02-21T05:45:33;13.23;;;6.85;;
33268;SDS011;19640;50.944;5.260;2024-02-21T05:47:58;13.27;;;6.13;;
33268;SDS011;19640;50.944;5.260;2024-02-21T05:50:24;12.90;;;6.55;;
33268;SDS011;19640;50.944;5.260;2024-02-21T05:52:51;10.35;;;6.32;;
33268;SDS011;19640;50.944;5.260;2024-02-21T05:55:18;13.13;;;5.85;;
33268;SDS011;19640;50.944;5.260;2024-02-21T05:57:43;13.18;;;5.80;;
33268;SDS011;19640;50.944;5.260;2024-02-21T06:00:09;11.70;;;5.88;;
33268;SDS011;19640;50.944;5.260;2024-02-21T06:02:35;8.55;;;5.38;;
33268;SDS011;19640;50.944;5.260;2024-02-21T06:05:00;7.28;;;4.82;;
33268;SDS011;19640;50.944;5.260;2024-02-21T06:07:26;14.43;;;6.05;;
33268;SDS011;19640;50.944;5.260;2024-02-21T06:09:52;10.45;;;5.65;;
33268;SDS011;19640;50.944;5.260;2024-02-21T06:12:17;10.55;;;6.43;;
33268;SDS011;19640;50.944;5.260;2024-02-21T06:14:43;10.23;;;6.10;;
33268;SDS011;19640;50.944;5.260;2024-02-21T06:17:09;12.07;;;6.75;;
33268;SDS011;19640;50.944;5.260;2024-02-21T06:19:34;13.18;;;6.40;;
33268;SDS011;19640;50.944;5.260;2024-02-21T06:22:00;12.70;;;5.93;;
33268;SDS011;19640;50.944;5.260;2024-02-21T06:24:25;14.27;;;7.05;;
33268;SDS011;19640;50.944;5.260;2024-02-21T06:26:51;10.32;;;6.30;;
33268;SDS011;19640;50.944;5.260;2024-02-21T06:29:17;13.65;;;6.95;;
33268;SDS011;19640;50.944;5.260;2024-02-21T06:31:42;7.40;;;5.78;;
33268;SDS011;19640;50.944;5.260;2024-02-21T06:34:08;7.60;;;5.53;;
33268;SDS011;19640;50.944;5.260;2024-02-21T06:36:34;12.65;;;6.32;;
33268;SDS011;19640;50.944;5.260;2024-02-21T06:38:59;8.40;;;5.97;;
33268;SDS011;19640;50.944;5.260;2024-02-21T06:41:25;10.85;;;6.40;;
33268;SDS011;19640;50.944;5.260;2024-02-21T06:43:51;14.73;;;7.57;;
33268;SDS011;19640;50.944;5.260;2024-02-21T06:46:26;15.60;;;7.53;;
33268;SDS011;19640;50.944;5.260;2024-02-21T06:48:53;14.32;;;8.23;;
33268;SDS011;19640;50.944;5.260;2024-02-21T06:51:21;13.57;;;7.57;;
33268;SDS011;19640;50.944;5.260;2024-02-21T06:53:47;12.85;;;7.15;;
33268;SDS011;19640;50.944;5.260;2024-02-21T06:56:13;14.20;;;7.30;;
33268;SDS011;19640;50.944;5.260;2024-02-21T06:58:39;12.35;;;7.07;;
33268;SDS011;19640;50.944;5.260;2024-02-21T07:01:05;16.45;;;7.40;;
33268;SDS011;19640;50.944;5.260;2024-02-21T07:03:31;16.17;;;7.65;;
33268;SDS011;19640;50.944;5.260;2024-02-21T07:05:56;12.88;;;6.90;;
33268;SDS011;19640;50.944;5.260;2024-02-21T07:08:22;13.68;;;6.90;;
33268;SDS011;19640;50.944;5.260;2024-02-21T07:10:48;14.82;;;7.32;;
33268;SDS011;19640;50.944;5.260;2024-02-21T07:13:13;14.00;;;7.20;;
33268;SDS011;19640;50.944;5.260;2024-02-21T07:15:40;13.25;;;6.50;;
33268;SDS011;19640;50.944;5.260;2024-02-21T07:18:06;11.50;;;6.47;;
33268;SDS011;19640;50.944;5.260;2024-02-21T07:20:32;10.98;;;6.70;;
33268;SDS011;19640;50.944;5.260;2024-02-21T07:23:06;12.60;;;6.55;;
33268;SDS011;19640;50.944;5.260;2024-02-21T07:25:32;15.02;;;7.05;;
33268;SDS011;19640;50.944;5.260;2024-02-21T07:27:58;13.45;;;7.40;;
33268;SDS011;19640;50.944;5.260;2024-02-21T07:30:23;14.93;;;6.65;;
33268;SDS011;19640;50.944;5.260;2024-02-21T07:32:49;16.10;;;7.72;;
33268;SDS011;19640;50.944;5.260;2024-02-21T07:35:16;15.15;;;7.00;;
33268;SDS011;19640;50.944;5.260;2024-02-21T07:37:42;16.95;;;6.57;;
33268;SDS011;19640;50.944;5.260;2024-02-21T07:40:15;9.77;;;7.00;;
33268;SDS011;19640;50.944;5.260;2024-02-21T07:42:42;13.30;;;7.95;;
33268;SDS011;19640;50.944;5.260;2024-02-21T07:45:08;19.17;;;7.40;;
33268;SDS011;19640;50.944;5.260;2024-02-21T07:47:34;11.40;;;6.80;;
33268;SDS011;19640;50.944;5.260;2024-02-21T07:50:00;15.18;;;7.72;;
33268;SDS011;19640;50.944;5.260;2024-02-21T07:52:27;15.18;;;6.32;;
33268;SDS011;19640;50.944;5.260;2024-02-21T07:54:53;17.33;;;6.72;;
33268;SDS011;19640;50.944;5.260;2024-02-21T07:57:18;17.55;;;7.90;;
33268;SDS011;19640;50.944;5.260;2024-02-21T07:59:44;18.88;;;8.32;;
33268;SDS011;19640;50.944;5.260;2024-02-21T08:02:12;12.73;;;7.13;;
33268;SDS011;19640;50.944;5.260;2024-02-21T08:04:41;17.25;;;7.85;;
33268;SDS011;19640;50.944;5.260;2024-02-21T08:07:07;17.30;;;7.60;;
33268;SDS011;19640;50.944;5.260;2024-02-21T08:09:32;16.40;;;8.02;;
33268;SDS011;19640;50.944;5.260;2024-02-21T08:11:58;12.90;;;6.00;;
33268;SDS011;19640;50.944;5.260;2024-02-21T08:14:24;17.08;;;6.95;;
33268;SDS011;19640;50.944;5.260;2024-02-21T08:16:52;16.63;;;7.20;;
33268;SDS011;19640;50.944;5.260;2024-02-21T08:19:18;10.30;;;6.53;;
33268;SDS011;19640;50.944;5.260;2024-02-21T08:21:44;8.50;;;6.55;;
33268;SDS011;19640;50.944;5.260;2024-02-21T08:24:12;12.85;;;6.38;;
33268;SDS011;19640;50.944;5.260;2024-02-21T08:26:40;12.85;;;6.90;;
33268;SDS011;19640;50.944;5.260;2024-02-21T08:29:06;16.95;;;5.68;;
33268;SDS011;19640;50.944;5.260;2024-02-21T08:31:32;14.10;;;6.47;;
33268;SDS011;19640;50.944;5.260;2024-02-21T08:33:58;8.40;;;5.65;;
33268;SDS011;19640;50.944;5.260;2024-02-21T08:38:58;14.88;;;5.80;;
33268;SDS011;19640;50.944;5.260;2024-02-21T08:41:25;10.50;;;5.28;;
33268;SDS011;19640;50.944;5.260;2024-02-21T08:43:51;13.00;;;5.13;;
33268;SDS011;19640;50.944;5.260;2024-02-21T08:46:18;9.32;;;4.82;;
33268;SDS011;19640;50.944;5.260;2024-02-21T08:48:45;10.30;;;4.88;;
33268;SDS011;19640;50.944;5.260;2024-02-21T08:51:11;15.30;;;3.97;;
33268;SDS011;19640;50.944;5.260;2024-02-21T08:53:38;13.50;;;5.15;;
33268;SDS011;19640;50.944;5.260;2024-02-21T08:56:03;11.30;;;4.40;;
33268;SDS011;19640;50.944;5.260;2024-02-21T08:58:30;12.88;;;4.13;;
33268;SDS011;19640;50.944;5.260;2024-02-21T09:00:56;8.40;;;4.22;;
33268;SDS011;19640;50.944;5.260;2024-02-21T09:03:22;12.50;;;3.88;;
33268;SDS011;19640;50.944;5.260;2024-02-21T09:05:48;4.82;;;3.55;;
33268;SDS011;19640;50.944;5.260;2024-02-21T09:08:14;8.48;;;3.72;;
33268;SDS011;19640;50.944;5.260;2024-02-21T09:10:39;12.88;;;3.95;;
33268;SDS011;19640;50.944;5.260;2024-02-21T09:13:05;8.45;;;4.50;;
33268;SDS011;19640;50.944;5.260;2024-02-21T09:15:33;7.38;;;3.95;;
33268;SDS011;19640;50.944;5.260;2024-02-21T09:17:58;8.10;;;3.45;;
33268;SDS011;19640;50.944;5.260;2024-02-21T09:20:24;7.95;;;3.88;;
33268;SDS011;19640;50.944;5.260;2024-02-21T09:22:50;7.72;;;3.33;;
33268;SDS011;19640;50.944;5.260;2024-02-21T09:25:17;13.32;;;4.22;;
33268;SDS011;19640;50.944;5.260;2024-02-21T09:27:43;7.10;;;3.55;;
33268;SDS011;19640;50.944;5.260;2024-02-21T09:30:10;8.52;;;3.75;;
33268;SDS011;19640;50.944;5.260;2024-02-21T09:32:36;7.15;;;3.53;;
33268;SDS011;19640;50.944;5.260;2024-02-21T09:35:02;7.72;;;3.53;;
33268;SDS011;19640;50.944;5.260;2024-02-21T09:37:28;6.63;;;3.72;;
33268;SDS011;19640;50.944;5.260;2024-02-21T09:39:54;10.25;;;4.55;;
33268;SDS011;19640;50.944;5.260;2024-02-21T09:42:20;7.85;;;4.00;;
33268;SDS011;19640;50.944;5.260;2024-02-21T09:44:46;8.70;;;3.50;;
33268;SDS011;19640;50.944;5.260;2024-02-21T09:47:23;9.88;;;4.25;;
33268;SDS011;19640;50.944;5.260;2024-02-21T09:49:56;6.82;;;3.78;;
33268;SDS011;19640;50.944;5.260;2024-02-21T09:52:22;5.30;;;3.42;;
33268;SDS011;19640;50.944;5.260;2024-02-21T09:54:51;10.05;;;4.53;;
33268;SDS011;19640;50.944;5.260;2024-02-21T09:57:18;10.40;;;4.35;;
33268;SDS011;19640;50.944;5.260;2024-02-21T09:59:45;11.77;;;4.20;;
33268;SDS011;19640;50.944;5.260;2024-02-21T10:02:11;7.03;;;3.47;;
33268;SDS011;19640;50.944;5.260;2024-02-21T10:04:39;5.65;;;3.00;;
33268;SDS011;19640;50.944;5.260;2024-02-21T10:07:05;11.35;;;4.22;;
33268;SDS011;19640;50.944;5.260;2024-02-21T10:09:31;8.85;;;3.65;;
33268;SDS011;19640;50.944;5.260;2024-02-21T10:12:08;10.57;;;4.05;;
33268;SDS011;19640;50.944;5.260;2024-02-21T10:14:35;10.35;;;3.63;;
33268;SDS011;19640;50.944;5.260;2024-02-21T10:17:00;5.13;;;2.50;;
33268;SDS011;19640;50.944;5.260;2024-02-21T10:19:27;6.70;;;3.65;;
33268;SDS011;19640;50.944;5.260;2024-02-21T10:24:33;8.98;;;3.53;;
33268;SDS011;19640;50.944;5.260;2024-02-21T10:27:01;7.30;;;3.60;;
33268;SDS011;19640;50.944;5.260;2024-02-21T10:29:28;6.65;;;3.72;;
33268;SDS011;19640;50.944;5.260;2024-02-21T10:32:10;8.43;;;3.53;;
33268;SDS011;19640;50.944;5.260;2024-02-21T10:34:37;11.90;;;4.07;;
33268;SDS011;19640;50.944;5.260;2024-02-21T10:37:04;13.10;;;3.83;;
33268;SDS011;19640;50.944;5.260;2024-02-21T10:39:31;13.90;;;3.38;;
33268;SDS011;19640;50.944;5.260;2024-02-21T10:41:59;8.98;;;3.30;;
33268;SDS011;19640;50.944;5.260;2024-02-21T10:44:29;7.00;;;3.60;;
33268;SDS011;19640;50.944;5.260;2024-02-21T10:47:03;8.40;;;3.63;;
33268;SDS011;19640;50.944;5.260;2024-02-21T10:49:32;10.40;;;3.50;;
33268;SDS011;19640;50.944;5.260;2024-02-21T10:57:44;6.90;;;2.83;;
33268;SDS011;19640;50.944;5.260;2024-02-21T11:00:11;8.57;;;2.97;;
33268;SDS011;19640;50.944;5.260;2024-02-21T11:02:39;9.60;;;3.47;;
33268;SDS011;19640;50.944;5.260;2024-02-21T11:05:06;7.82;;;3.13;;
33268;SDS011;19640;50.944;5.260;2024-02-21T11:07:32;7.97;;;3.83;;
33268;SDS011;19640;50.944;5.260;2024-02-21T11:10:02;10.43;;;3.90;;
33268;SDS011;19640;50.944;5.260;2024-02-21T11:12:28;6.90;;;2.85;;
33268;SDS011;19640;50.944;5.260;2024-02-21T11:15:06;7.45;;;3.35;;
33268;SDS011;19640;50.944;5.260;2024-02-21T11:17:33;8.05;;;3.15;;
33268;SDS011;19640;50.944;5.260;2024-02-21T11:19:58;8.82;;;3.35;;
33268;SDS011;19640;50.944;5.260;2024-02-21T11:22:40;4.97;;;3.17;;
33268;SDS011;19640;50.944;5.260;2024-02-21T11:25:07;10.95;;;3.65;;
33268;SDS011;19640;50.944;5.260;2024-02-21T11:27:39;7.13;;;3.17;;
33268;SDS011;19640;50.944;5.260;2024-02-21T11:30:11;8.52;;;2.90;;
33268;SDS011;19640;50.944;5.260;2024-02-21T11:32:37;10.10;;;3.00;;
33268;SDS011;19640;50.944;5.260;2024-02-21T11:35:03;5.10;;;2.75;;
33268;SDS011;19640;50.944;5.260;2024-02-21T11:37:30;5.45;;;2.53;;
33268;SDS011;19640;50.944;5.260;2024-02-21T11:39:58;7.60;;;3.50;;
33268;SDS011;19640;50.944;5.260;2024-02-21T11:42:25;6.28;;;2.47;;
33268;SDS011;19640;50.944;5.260;2024-02-21T11:44:51;4.72;;;2.92;;
33268;SDS011;19640;50.944;5.260;2024-02-21T11:47:18;5.13;;;2.40;;
33268;SDS011;19640;50.944;5.260;2024-02-21T11:49:46;7.38;;;2.70;;
33268;SDS011;19640;50.944;5.260;2024-02-21T11:52:19;13.48;;;3.28;;
33268;SDS011;19640;50.944;5.260;2024-02-21T11:54:47;7.45;;;2.60;;
33268;SDS011;19640;50.944;5.260;2024-02-21T11:57:13;5.55;;;2.30;;
33268;SDS011;19640;50.944;5.260;2024-02-21T11:59:39;9.02;;;2.70;;
33268;SDS011;19640;50.944;5.260;2024-02-21T12:02:06;8.13;;;2.80;;
33268;SDS011;19640;50.944;5.260;2024-02-21T12:04:32;5.93;;;2.05;;
33268;SDS011;19640;50.944;5.260;2024-02-21T12:06:58;6.38;;;3.13;;
33268;SDS011;19640;50.944;5.260;2024-02-21T12:09:24;9.40;;;2.40;;
33268;SDS011;19640;50.944;5.260;2024-02-21T12:11:57;6.95;;;2.58;;
33268;SDS011;19640;50.944;5.260;2024-02-21T12:14:29;3.53;;;2.35;;
33268;SDS011;19640;50.944;5.260;2024-02-21T12:16:55;8.43;;;2.97;;
33268;SDS011;19640;50.944;5.260;2024-02-21T12:19:21;3.00;;;2.50;;
33268;SDS011;19640;50.944;5.260;2024-02-21T12:21:47;3.88;;;2.45;;
33268;SDS011;19640;50.944;5.260;2024-02-21T12:26:41;4.72;;;2.28;;
33268;SDS011;19640;50.944;5.260;2024-02-21T12:29:07;5.43;;;2.40;;
33268;SDS011;19640;50.944;5.260;2024-02-21T12:31:36;8.10;;;2.80;;
33268;SDS011;19640;50.944;5.260;2024-02-21T12:34:03;10.05;;;2.80;;
33268;SDS011;19640;50.944;5.260;2024-02-21T12:36:29;4.57;;;2.28;;
33268;SDS011;19640;50.944;5.260;2024-02-21T12:38:56;4.13;;;2.40;;
33268;SDS011;19640;50.944;5.260;2024-02-21T12:41:21;4.40;;;2.05;;
33268;SDS011;19640;50.944;5.260;2024-02-21T12:43:47;5.55;;;2.38;;
33268;SDS011;19640;50.944;5.260;2024-02-21T12:46:13;3.95;;;2.08;;
33268;SDS011;19640;50.944;5.260;2024-02-21T12:48:38;4.28;;;2.05;;
33268;SDS011;19640;50.944;5.260;2024-02-21T12:51:05;4.60;;;2.65;;
33268;SDS011;19640;50.944;5.260;2024-02-21T12:53:30;3.22;;;2.08;;
33268;SDS011;19640;50.944;5.260;2024-02-21T12:55:57;3.88;;;2.10;;
33268;SDS011;19640;50.944;5.260;2024-02-21T12:58:22;4.40;;;2.08;;
33268;SDS011;19640;50.944;5.260;2024-02-21T13:00:48;3.58;;;2.22;;
33268;SDS011;19640;50.944;5.260;2024-02-21T13:03:14;3.95;;;1.70;;
33268;SDS011;19640;50.944;5.260;2024-02-21T13:05:39;6.63;;;1.95;;
33268;SDS011;19640;50.944;5.260;2024-02-21T13:08:08;4.47;;;1.60;;
33268;SDS011;19640;50.944;5.260;2024-02-21T13:10:34;5.03;;;1.90;;
33268;SDS011;19640;50.944;5.260;2024-02-21T13:13:03;5.13;;;1.80;;
33268;SDS011;19640;50.944;5.260;2024-02-21T13:15:29;2.50;;;1.58;;
33268;SDS011;19640;50.944;5.260;2024-02-21T13:17:57;2.90;;;1.73;;
33268;SDS011;19640;50.944;5.260;2024-02-21T13:20:24;3.90;;;2.28;;
33268;SDS011;19640;50.944;5.260;2024-02-21T13:22:50;6.80;;;2.00;;
33268;SDS011;19640;50.944;5.260;2024-02-21T13:25:16;2.88;;;1.60;;
33268;SDS011;19640;50.944;5.260;2024-02-21T13:27:45;4.43;;;1.60;;
33268;SDS011;19640;50.944;5.260;2024-02-21T13:30:11;4.20;;;1.60;;
33268;SDS011;19640;50.944;5.260;2024-02-21T13:32:38;2.38;;;1.42;;
33268;SDS011;19640;50.944;5.260;2024-02-21T13:35:04;5.30;;;2.10;;
33268;SDS011;19640;50.944;5.260;2024-02-21T13:37:30;2.85;;;1.63;;
33268;SDS011;19640;50.944;5.260;2024-02-21T13:39:56;3.30;;;1.70;;
33268;SDS011;19640;50.944;5.260;2024-02-21T13:42:22;4.10;;;1.75;;
33268;SDS011;19640;50.944;5.260;2024-02-21T13:44:48;2.08;;;1.58;;
33268;SDS011;19640;50.944;5.260;2024-02-21T13:47:14;4.60;;;2.03;;
33268;SDS011;19640;50.944;5.260;2024-02-21T13:49:40;2.38;;;1.70;;
33268;SDS011;19640;50.944;5.260;2024-02-21T13:52:06;3.95;;;2.03;;
33268;SDS011;19640;50.944;5.260;2024-02-21T13:54:32;2.53;;;1.67;;
33268;SDS011;19640;50.944;5.260;2024-02-21T13:56:57;3.85;;;1.60;;
33268;SDS011;19640;50.944;5.260;2024-02-21T13:59:23;4.47;;;1.85;;
33268;SDS011;19640;50.944;5.260;2024-02-21T14:01:49;6.65;;;1.80;;
33268;SDS011;19640;50.944;5.260;2024-02-21T14:04:14;4.13;;;1.80;;
33268;SDS011;19640;50.944;5.260;2024-02-21T14:06:40;2.22;;;1.52;;
33268;SDS011;19640;50.944;5.260;2024-02-21T14:09:09;4.93;;;1.80;;
33268;SDS011;19640;50.944;5.260;2024-02-21T14:11:36;4.95;;;1.98;;
33268;SDS011;19640;50.944;5.260;2024-02-21T14:14:03;4.28;;;1.77;;
33268;SDS011;19640;50.944;5.260;2024-02-21T14:16:29;2.72;;;1.50;;
33268;SDS011;19640;50.944;5.260;2024-02-21T14:18:55;5.72;;;1.98;;
33268;SDS011;19640;50.944;5.260;2024-02-21T14:21:21;2.22;;;1.35;;
33268;SDS011;19640;50.944;5.260;2024-02-21T14:23:47;4.85;;;2.08;;
33268;SDS011;19640;50.944;5.260;2024-02-21T14:26:12;3.15;;;1.70;;
33268;SDS011;19640;50.944;5.260;2024-02-21T14:28:39;6.32;;;2.10;;
33268;SDS011;19640;50.944;5.260;2024-02-21T14:31:05;4.43;;;1.95;;
33268;SDS011;19640;50.944;5.260;2024-02-21T14:33:34;5.63;;;1.70;;
33268;SDS011;19640;50.944;5.260;2024-02-21T14:36:00;4.75;;;2.55;;
33268;SDS011;19640;50.944;5.260;2024-02-21T14:38:27;4.97;;;1.70;;
33268;SDS011;19640;50.944;5.260;2024-02-21T14:40:53;6.50;;;2.33;;
33268;SDS011;19640;50.944;5.260;2024-02-21T14:43:19;4.65;;;1.80;;
33268;SDS011;19640;50.944;5.260;2024-02-21T14:45:46;3.78;;;1.75;;
33268;SDS011;19640;50.944;5.260;2024-02-21T14:48:13;3.58;;;1.80;;